Time;durP1;ratioP1;P1;durP2;ratioP2;P2;SDS_P1;SDS_P2;PMS_P1;PMS_P2;Temp;Humidity;BMP_temperature;BMP_pressure;BME280_temperature;BME280_humidity;BME280_pressure;Samples;Min_cycle;Max_cycle;Signal;HPM_P1;HPM_P2
2023/08/04 00:04:23;;;;;;;3.80;2.20;;;;;;;16.62;77.84;98159.98;226122;1276;22577;-74
2023/08/04 00:10:58;;;;;;;;;;;;;;;;;;;;;
2023/08/04 00:16:09;;;;;;;1.90;1.70;;;;;;;16.55;78.04;98159.80;226008;1279;22545;-74
2023/08/04 00:21:13;;;;;;;3.90;1.30;;;;;;;16.50;78.01;98167.13;226038;1272;25230;-74
2023/08/04 00:26:22;;;;;;;2.30;1.40;;;;;;;16.46;78.27;98165.38;225942;1278;22672;-74
2023/08/04 00:32:38;;;;;;;5.00;2.00;;;;;;;16.45;78.29;98163.23;225990;1280;22533;-74
2023/08/04 00:38:29;;;;;;;2.90;1.30;;;;;;;16.46;78.33;98165.64;225752;1279;22545;-74
2023/08/04 00:43:34;;;;;;;2.60;1.50;;;;;;;16.46;78.45;98176.59;225949;1279;22533;-74
2023/08/04 00:49:52;;;;;;;;;;;;;;;;;;;;;
2023/08/04 00:55:53;;;;;;;4.60;1.60;;;;;;;16.55;78.51;98180.39;225788;1279;22506;-75
2023/08/04 01:01:49;;;;;;;2.90;1.60;;;;;;;16.61;78.15;98181.09;225880;1279;22560;-76
2023/08/04 01:08:04;;;;;;;;;;;;;;;;;;;;;
2023/08/04 01:13:21;;;;;;;1.60;1.20;;;;;;;16.64;77.99;98166.75;225945;1279;22604;-74
2023/08/04 01:19:51;;;;;;;;;;;;;;;;;;;;;
2023/08/04 01:25:29;;;;;;;2.30;1.50;;;;;;;16.60;77.96;98161.45;225915;1279;22540;-75
2023/08/04 01:30:36;;;;;;;2.60;1.60;;;;;;;16.56;77.69;98158.34;226032;1279;23298;-75
2023/08/04 01:35:43;;;;;;;2.60;1.50;;;;;;;16.51;77.98;98148.70;225951;1278;22553;-75
2023/08/04 01:41:25;;;;;;;2.70;1.60;;;;;;;16.47;78.00;98139.73;225975;1279;22564;-75
2023/08/04 01:47:16;;;;;;;4.50;1.60;;;;;;;16.44;78.21;98163.64;225982;1279;23494;-74
2023/08/04 01:52:30;;;;;;;4.40;1.80;;;;;;;16.43;78.30;98180.27;226000;1279;22529;-75
2023/08/04 01:57:47;;;;;;;3.80;1.90;;;;;;;16.46;78.17;98182.75;225937;1262;22557;-75
2023/08/04 02:03:38;;;;;;;5.20;2.10;;;;;;;16.49;78.24;98183.59;225460;1277;22632;-75
2023/08/04 02:09:32;;;;;;;;;;;;;;;;;;;;;
2023/08/04 02:14:38;;;;;;;2.70;1.70;;;;;;;16.62;78.11;98184.59;225466;1282;22564;-74
2023/08/04 02:19:51;;;;;;;;;;;;;;;;;;;;;
2023/08/04 02:25:46;;;;;;;3.10;1.90;;;;;;;16.70;77.81;98186.91;225490;1279;22556;-74
2023/08/04 02:30:49;;;;;;;5.70;2.00;;;;;;;16.68;77.73;98180.75;225920;1279;22552;-74
2023/08/04 02:36:25;;;;;;;2.60;1.70;;;;;;;16.63;77.81;98176.49;225997;1279;22555;-74
2023/08/04 02:42:11;;;;;;;5.10;1.90;;;;;;;16.53;77.74;98174.87;225948;1279;22566;-74
2023/08/04 02:47:39;;;;;;;3.10;1.50;;;;;;;16.43;77.71;98184.73;225890;1279;22552;-75
2023/08/04 02:52:44;;;;;;;3.10;1.90;;;;;;;16.35;77.81;98190.92;225842;1279;22521;-75
2023/08/04 02:57:53;;;;;;;3.40;1.80;;;;;;;16.28;78.05;98202.31;226039;1279;22554;-75
2023/08/04 03:02:56;;;;;;;4.00;1.90;;;;;;;16.21;77.72;98199.57;225874;1279;22529;-75
2023/08/04 03:08:08;;;;;;;4.10;1.40;;;;;;;16.19;78.07;98216.74;226001;1279;22559;-75
2023/08/04 03:13:13;;;;;;;4.50;1.70;;;;;;;16.21;78.15;98222.82;226040;1279;24331;-75
2023/08/04 03:18:38;;;;;;;5.30;1.60;;;;;;;16.27;78.30;98232.75;225981;1279;22544;-75
2023/08/04 03:23:53;;;;;;;2.90;1.60;;;;;;;16.33;78.30;98239.63;226069;1274;22540;-74
2023/08/04 03:29:02;;;;;;;3.70;1.90;;;;;;;16.37;78.04;98238.64;226016;1277;22898;-74
2023/08/04 03:34:38;;;;;;;4.20;2.20;;;;;;;16.39;78.31;98242.84;225950;1256;22545;-74
2023/08/04 03:40:20;;;;;;;3.30;1.80;;;;;;;16.39;78.18;98244.55;226104;1272;22886;-74
2023/08/04 03:45:31;;;;;;;4.00;2.40;;;;;;;16.41;78.29;98249.71;226046;1275;24204;-75
2023/08/04 03:50:59;;;;;;;5.30;1.90;;;;;;;16.43;78.12;98247.30;226051;1273;22718;-74
2023/08/04 03:56:19;;;;;;;5.00;2.20;;;;;;;16.46;77.79;98245.21;226105;1279;22559;-77
2023/08/04 04:01:45;;;;;;;;;;;;;;;;;;;;;
2023/08/04 04:08:04;;;;;;;;;;;;;;;;;;;;;
2023/08/04 04:13:39;;;;;;;6.40;2.00;;;;;;;16.59;78.16;98277.02;225982;1279;22548;-74
2023/08/04 04:18:42;;;;;;;5.90;2.00;;;;;;;16.62;77.86;98277.57;226033;1273;22549;-75
2023/08/04 04:23:44;;;;;;;5.40;1.80;;;;;;;16.70;78.05;98280.91;226048;1277;22748;-74
2023/08/04 04:28:54;;;;;;;7.10;2.30;;;;;;;16.80;77.95;98279.77;226017;1279;22540;-76
2023/08/04 04:33:57;;;;;;;3.50;1.60;;;;;;;16.91;77.95;98282.48;225962;1275;22573;-75
2023/08/04 04:39:00;;;;;;;4.00;1.60;;;;;;;16.99;77.68;98290.41;226003;1279;23305;-76
2023/08/04 04:44:04;;;;;;;3.50;1.80;;;;;;;17.08;77.40;98292.84;226107;1275;22540;-75
2023/08/04 04:49:07;;;;;;;4.30;1.90;;;;;;;17.14;77.48;98308.29;225960;1279;22544;-74
2023/08/04 04:54:13;;;;;;;4.00;1.60;;;;;;;17.26;77.56;98304.04;225996;1279;24382;-74
2023/08/04 04:59:16;;;;;;;5.60;1.60;;;;;;;17.37;77.44;98300.37;226004;1280;22935;-75
2023/08/04 05:04:18;;;;;;;4.50;1.70;;;;;;;17.47;77.26;98302.66;225993;1278;22536;-74
2023/08/04 05:09:21;;;;;;;4.20;1.50;;;;;;;17.56;77.41;98309.42;226015;1279;22547;-75
2023/08/04 05:14:23;;;;;;;5.60;1.90;;;;;;;17.63;77.10;98307.52;225973;1273;25307;-74
2023/08/04 05:19:25;;;;;;;4.90;1.50;;;;;;;17.69;76.92;98299.65;226027;1277;22536;-74
2023/08/04 05:24:27;;;;;;;3.90;1.70;;;;;;;17.78;76.77;98295.02;226086;1279;22556;-75
2023/08/04 05:29:30;;;;;;;2.40;1.40;;;;;;;17.86;76.70;98296.64;226029;1276;22548;-75
2023/08/04 05:34:36;;;;;;;2.50;1.60;;;;;;;17.97;76.44;98295.40;226037;1276;22547;-74
2023/08/04 05:39:43;;;;;;;4.70;1.50;;;;;;;18.09;76.35;98291.96;226053;1276;22533;-75
2023/08/04 05:44:46;;;;;;;3.20;1.70;;;;;;;18.20;76.24;98291.56;225530;1268;22535;-75
2023/08/04 05:49:49;;;;;;;4.60;1.60;;;;;;;18.40;76.07;98287.30;225501;1270;22539;-76
2023/08/04 05:54:53;;;;;;;5.80;2.10;;;;;;;18.71;75.93;98286.39;225608;1279;22543;-75
2023/08/04 05:59:56;;;;;;;9.20;7.50;;;;;;;18.95;75.29;98291.60;225873;1279;24718;-75
2023/08/04 06:05:01;;;;;;;3.70;2.00;;;;;;;19.12;74.82;98288.91;225623;1272;22538;-76
2023/08/04 06:10:05;;;;;;;4.10;1.90;;;;;;;19.33;74.55;98284.85;225746;1264;22547;-77
2023/08/04 06:15:09;;;;;;;5.00;1.90;;;;;;;19.42;74.21;98295.91;225545;1258;22575;-75
2023/08/04 06:20:12;;;;;;;5.20;2.00;;;;;;;19.50;74.13;98301.60;225808;1272;22541;-76
2023/08/04 06:25:22;;;;;;;4.80;2.00;;;;;;;19.58;73.97;98305.65;225440;1260;22526;-75
2023/08/04 06:31:11;;;;;;;;;;;;;;;;;;;;;
2023/08/04 06:36:58;;;;;;;7.40;2.60;;;;;;;19.94;73.74;98309.73;225639;1261;22537;-76
2023/08/04 06:42:09;;;;;;;2.80;1.80;;;;;;;20.18;73.20;98315.70;225640;1265;22925;-78
2023/08/04 06:47:15;;;;;;;6.00;4.20;;;;;;;20.38;72.93;98325.36;225403;1259;23721;-74
2023/08/04 06:52:27;;;;;;;4.10;1.70;;;;;;;20.62;72.46;98326.69;225290;1261;22562;-75
2023/08/04 06:57:38;;;;;;;4.60;1.50;;;;;;;20.87;72.30;98336.30;225427;1268;23097;-74
2023/08/04 07:02:49;;;;;;;4.90;1.30;;;;;;;21.06;71.39;98348.81;225613;1260;24211;-74
2023/08/04 07:07:54;;;;;;;2.00;1.30;;;;;;;21.15;71.00;98366.25;225308;1258;22557;-75
2023/08/04 07:12:57;;;;;;;2.50;1.20;;;;;;;21.32;70.52;98373.44;225354;1259;23007;-74
2023/08/04 07:18:02;;;;;;;2.70;1.30;;;;;;;21.54;70.23;98374.91;225186;1260;22689;-74
2023/08/04 07:23:04;;;;;;;3.70;1.40;;;;;;;21.69;69.68;98372.86;225093;1264;22595;-74
2023/08/04 07:28:06;;;;;;;2.20;1.20;;;;;;;22.00;69.79;98361.86;225265;1268;22993;-74
2023/08/04 07:33:09;;;;;;;3.30;1.40;;;;;;;22.46;69.16;98353.99;225127;1265;22545;-75
2023/08/04 07:38:20;;;;;;;1.90;1.40;;;;;;;22.78;67.62;98347.77;225057;1264;22540;-74
2023/08/04 07:43:24;;;;;;;4.80;3.60;;;;;;;23.17;67.88;98347.55;225164;1256;22934;-75
2023/08/04 07:48:34;;;;;;;2.70;1.60;;;;;;;23.60;67.29;98346.90;225493;1261;25632;-79
2023/08/04 07:53:37;;;;;;;2.00;1.50;;;;;;;23.94;65.95;98345.86;225478;1268;22533;-75
2023/08/04 07:58:48;;;;;;;3.60;1.60;;;;;;;24.12;65.32;98349.54;225344;1262;22686;-76
2023/08/04 08:03:50;;;;;;;3.00;1.10;;;;;;;24.39;65.25;98348.90;225406;1256;25285;-75
2023/08/04 08:08:52;;;;;;;2.10;1.10;;;;;;;24.42;64.29;98362.42;225440;1275;24991;-79
2023/08/04 08:13:55;;;;;;;2.70;1.30;;;;;;;24.53;64.66;98360.49;225334;1279;22608;-75
2023/08/04 08:19:03;;;;;;;1.70;1.00;;;;;;;24.61;63.78;98361.06;225615;1260;23053;-74
2023/08/04 08:24:15;;;;;;;2.00;1.00;;;;;;;24.64;63.22;98369.23;225702;1276;22570;-74
2023/08/04 08:29:17;;;;;;;1.80;1.20;;;;;;;24.77;62.46;98375.94;225687;1272;22533;-74
2023/08/04 08:34:23;;;;;;;3.20;1.10;;;;;;;24.86;62.57;98365.39;225642;1272;22641;-76
2023/08/04 08:39:32;;;;;;;1.60;1.00;;;;;;;25.05;61.98;98376.88;225623;1278;22533;-74
2023/08/04 08:44:37;;;;;;;2.20;1.00;;;;;;;25.23;62.01;98376.77;225624;1276;22565;-73
2023/08/04 08:50:02;;;;;;;1.80;1.20;;;;;;;25.40;61.47;98384.15;225291;1262;22534;-75
2023/08/04 08:55:15;;;;;;;3.00;1.20;;;;;;;25.44;61.08;98385.66;225407;1272;22535;-75
2023/08/04 09:00:20;;;;;;;2.90;1.20;;;;;;;25.57;61.08;98377.02;225439;1278;22547;-76
2023/08/04 09:05:33;;;;;;;5.30;1.40;;;;;;;25.76;60.27;98378.78;225391;1262;25268;-76
2023/08/04 09:10:39;;;;;;;2.90;1.30;;;;;;;25.76;59.99;98385.55;225563;1261;25145;-77
2023/08/04 09:16:08;;;;;;;;;;;;;;;;;;;;;
2023/08/04 09:21:13;;;;;;;1.50;1.20;;;;;;;25.65;59.08;98379.70;225250;1266;22643;-77
2023/08/04 09:26:16;;;;;;;2.10;1.20;;;;;;;25.58;59.90;98373.58;225182;1275;22551;-77
2023/08/04 09:31:46;;;;;;;1.60;1.20;;;;;;;25.70;59.55;98383.04;225251;1264;22546;-76
2023/08/04 09:36:49;;;;;;;3.40;1.30;;;;;;;25.72;59.08;98387.67;225441;1275;25275;-75
2023/08/04 09:41:51;;;;;;;1.80;1.50;;;;;;;25.73;58.69;98376.02;225662;1272;22540;-76
2023/08/04 09:47:22;;;;;;;;;;;;;;;;;;;;;
2023/08/04 09:52:27;;;;;;;3.00;1.30;;;;;;;25.93;59.20;98375.88;225605;1272;23625;-76
2023/08/04 09:57:33;;;;;;;;;;;;;;;26.15;58.57;98372.44;225631;1276;24734;-76
2023/08/04 10:02:36;;;;;;;3.30;1.50;;;;;;;26.19;58.03;98367.88;225513;1277;22528;-76
2023/08/04 10:07:44;;;;;;;2.30;1.30;;;;;;;26.35;58.62;98363.86;225780;1266;22666;-76
2023/08/04 10:13:03;;;;;;;1.60;1.20;;;;;;;26.67;58.06;98370.85;225709;1261;22546;-76
2023/08/04 10:18:09;;;;;;;1.50;1.10;;;;;;;26.75;56.13;98367.65;225719;1277;22530;-76
2023/08/04 10:23:14;;;;;;;3.10;1.30;;;;;;;26.59;55.97;98369.77;225584;1278;22544;-76
2023/08/04 10:28:17;;;;;;;4.60;2.80;;;;;;;26.69;56.26;98359.58;225636;1278;22543;-80
2023/08/04 10:33:26;;;;;;;1.20;1.10;;;;;;;26.92;55.67;98356.39;225692;1278;22518;-78
2023/08/04 10:38:45;;;;;;;1.50;1.10;;;;;;;26.90;55.18;98359.23;225812;1278;22918;-77
2023/08/04 10:44:20;;;;;;;0.90;0.90;;;;;;;26.86;54.71;98358.58;225797;1276;22540;-77
2023/08/04 10:49:25;;;;;;;1.20;0.80;;;;;;;26.86;54.25;98360.64;225409;1260;387591;-76
2023/08/04 10:54:47;;;;;;;3.40;1.00;;;;;;;26.78;54.29;98362.86;225630;1262;23648;-77
2023/08/04 10:59:51;;;;;;;2.20;0.80;;;;;;;26.96;54.12;98371.98;225198;1275;22547;-79
2023/08/04 11:04:54;;;;;;;2.40;1.00;;;;;;;27.40;54.57;98358.36;225229;1262;22543;-77
2023/08/04 11:10:04;;;;;;;0.70;0.60;;;;;;;27.65;52.86;98356.30;225194;1271;22561;-78
2023/08/04 11:15:11;;;;;;;3.10;0.80;;;;;;;27.60;51.86;98357.59;225232;1278;22596;-78
2023/08/04 11:20:15;;;;;;;1.20;0.50;;;;;;;27.80;51.15;98359.61;225223;1272;22544;-78
2023/08/04 11:25:20;;;;;;;1.30;1.20;;;;;;;27.81;50.47;98364.77;225017;1275;22606;-78
2023/08/04 11:30:23;;;;;;;3.50;3.20;;;;;;;28.00;50.13;98360.08;225171;1265;22596;-77
2023/08/04 11:35:32;;;;;;;1.20;0.60;;;;;;;28.10;48.84;98355.67;225487;1260;22547;-77
2023/08/04 11:40:37;;;;;;;0.40;0.40;;;;;;;28.09;48.83;98358.30;225508;1279;22584;-78
2023/08/04 11:45:50;;;;;;;3.30;0.70;;;;;;;28.24;48.78;98357.98;225457;1277;22540;-78
2023/08/04 11:50:58;;;;;;;;;;;;;;;28.52;50.05;98361.75;225505;1278;22528;-76
2023/08/04 11:56:02;;;;;;;1.60;1.30;;;;;;;28.59;49.80;98365.16;225321;1278;22579;-77
2023/08/04 12:01:25;;;;;;;1.40;0.90;;;;;;;28.29;50.44;98374.81;225277;1257;22565;-77
2023/08/04 12:06:29;;;;;;;2.70;1.30;;;;;;;28.22;51.07;98350.73;225389;1260;22661;-77
2023/08/04 12:11:31;;;;;;;2.20;1.20;;;;;;;28.31;51.75;98350.39;225419;1273;22536;-77
2023/08/04 12:16:48;;;;;;;1.80;1.30;;;;;;;28.40;51.99;98348.41;225610;1278;25422;-77
2023/08/04 12:22:03;;;;;;;2.70;1.30;;;;;;;28.31;51.78;98356.21;225681;1257;22546;-77
2023/08/04 12:27:07;;;;;;;3.20;1.90;;;;;;;27.92;52.02;98368.98;225790;1268;22575;-75
2023/08/04 12:32:20;;;;;;;1.60;1.30;;;;;;;27.71;52.76;98373.74;225518;1278;25288;-75
2023/08/04 12:37:27;;;;;;;3.90;2.00;;;;;;;27.75;53.88;98364.35;224935;1276;22622;-76
2023/08/04 12:42:30;;;;;;;3.40;1.90;;;;;;;27.80;54.16;98359.33;224783;1273;22624;-75
2023/08/04 12:47:36;;;;;;;3.10;1.70;;;;;;;27.82;54.36;98366.36;224898;1260;22563;-75
2023/08/04 12:52:42;;;;;;;2.70;1.80;;;;;;;27.78;54.20;98370.69;224851;1264;22568;-76
2023/08/04 12:57:46;;;;;;;1.90;1.50;;;;;;;27.60;53.98;98371.65;225582;1266;22568;-76
2023/08/04 13:02:53;;;;;;;3.70;2.40;;;;;;;27.51;54.28;98375.39;224600;1262;25401;-76
2023/08/04 13:07:57;;;;;;;2.80;1.70;;;;;;;27.58;54.63;98384.10;224760;1260;25426;-75
2023/08/04 13:13:02;;;;;;;2.40;2.10;;;;;;;27.64;54.65;98394.00;224653;1272;23858;-76
2023/08/04 13:18:04;;;;;;;3.80;2.00;;;;;;;27.64;54.49;98402.79;224607;1272;22554;-76
2023/08/04 13:23:07;;;;;;;2.60;1.60;;;;;;;27.42;54.51;98403.56;224569;1263;22538;-76
2023/08/04 13:28:10;;;;;;;2.60;1.70;;;;;;;27.37;55.25;98403.52;224585;1276;22597;-75
2023/08/04 13:33:12;;;;;;;4.80;2.10;;;;;;;27.36;55.41;98406.46;224720;1257;22566;-77
2023/08/04 13:38:14;;;;;;;2.50;2.00;;;;;;;27.31;55.33;98403.60;224615;1260;23018;-74
2023/08/04 13:43:16;;;;;;;3.00;2.00;;;;;;;27.15;55.43;98405.91;224618;1278;22592;-76
2023/08/04 13:48:18;;;;;;;4.90;2.10;;;;;;;27.15;55.74;98412.94;224756;1274;23356;-75
2023/08/04 13:53:20;;;;;;;17.30;15.60;;;;;;;27.23;55.83;98408.57;224626;1276;22609;-75
2023/08/04 13:58:28;;;;;;;6.40;5.70;;;;;;;27.21;55.38;98412.19;225544;1278;22554;-78
2023/08/04 14:03:30;;;;;;;3.40;2.40;;;;;;;27.00;55.67;98416.30;225273;1278;22955;-76
2023/08/04 14:08:33;;;;;;;2.90;2.00;;;;;;;26.84;55.58;98428.38;225615;1279;22574;-77
2023/08/04 14:13:35;;;;;;;4.70;2.40;;;;;;;26.78;56.26;98427.36;225886;1279;22547;-76
2023/08/04 14:18:37;;;;;;;5.80;3.70;;;;;;;26.83;56.48;98435.81;225733;1279;22671;-77
2023/08/04 14:23:40;;;;;;;3.40;2.20;;;;;;;26.76;56.07;98438.00;225988;1278;22569;-77
2023/08/04 14:28:43;;;;;;;3.30;1.90;;;;;;;26.62;56.09;98445.50;226078;1278;22550;-78
2023/08/04 14:33:46;;;;;;;4.40;2.40;;;;;;;26.50;56.47;98448.88;225975;1280;22563;-77
2023/08/04 14:38:48;;;;;;;4.20;3.20;;;;;;;26.44;56.71;98442.42;226124;1280;25360;-77
2023/08/04 14:43:53;;;;;;;3.50;2.50;;;;;;;26.31;56.62;98440.54;226136;1279;22541;-77
2023/08/04 14:48:55;;;;;;;5.60;2.30;;;;;;;26.16;56.93;98430.07;226150;1275;22567;-78
2023/08/04 14:53:57;;;;;;;4.30;2.50;;;;;;;25.97;57.00;98418.54;226154;1276;22534;-77
2023/08/04 14:58:59;;;;;;;5.90;2.80;;;;;;;25.86;57.26;98413.90;225907;1272;22540;-77
2023/08/04 15:04:02;;;;;;;5.00;2.40;;;;;;;25.83;57.41;98401.83;226149;1279;24604;-77
2023/08/04 15:09:04;;;;;;;3.10;2.10;;;;;;;25.89;57.37;98403.46;226160;1276;22583;-81
2023/08/04 15:14:06;;;;;;;4.30;2.40;;;;;;;25.79;56.92;98400.43;226043;1256;22540;-78
2023/08/04 15:19:08;;;;;;;4.00;2.40;;;;;;;25.60;57.42;98405.92;225982;1279;22544;-78
2023/08/04 15:24:11;;;;;;;5.60;2.50;;;;;;;25.40;57.79;98404.86;226198;1279;22554;-77
2023/08/04 15:29:13;;;;;;;4.00;2.40;;;;;;;25.29;58.22;98404.77;226295;1276;22542;-77
2023/08/04 15:34:16;;;;;;;3.80;2.50;;;;;;;25.18;58.65;98397.30;226068;1280;22585;-77
2023/08/04 15:39:18;;;;;;;5.70;2.50;;;;;;;25.21;59.07;98396.27;226021;1279;22677;-76
2023/08/04 15:44:33;;;;;;;4.50;2.40;;;;;;;25.21;58.99;98393.46;226111;1280;22540;-77
2023/08/04 15:49:38;;;;;;;5.70;2.50;;;;;;;25.09;59.30;98391.58;226027;1279;22647;-77
2023/08/04 15:54:40;;;;;;;5.30;2.30;;;;;;;25.07;59.54;98394.60;226155;1279;22554;-76
2023/08/04 15:59:42;;;;;;;5.30;2.50;;;;;;;24.97;59.51;98391.59;226011;1279;22547;-76
2023/08/04 16:04:44;;;;;;;5.50;2.70;;;;;;;24.92;59.95;98390.70;226140;1276;26064;-77
2023/08/04 16:09:46;;;;;;;4.20;2.50;;;;;;;24.85;59.99;98395.48;226031;1279;23304;-78
2023/08/04 16:14:52;;;;;;;5.10;3.00;;;;;;;24.77;60.41;98394.73;226139;1277;25434;-79
2023/08/04 16:19:55;;;;;;;4.70;2.80;;;;;;;24.71;60.39;98400.38;226113;1276;22546;-77
2023/08/04 16:25:04;;;;;;;5.50;2.50;;;;;;;24.49;60.39;98406.52;225965;1279;23207;-78
2023/08/04 16:30:16;;;;;;;4.40;2.50;;;;;;;24.19;60.65;98416.88;225996;1279;24263;-77
2023/08/04 16:35:18;;;;;;;4.80;2.60;;;;;;;23.96;61.14;98414.86;225997;1273;22572;-78
2023/08/04 16:40:23;;;;;;;4.00;2.70;;;;;;;23.75;61.58;98421.41;226111;1277;22547;-78
2023/08/04 16:45:25;;;;;;;4.70;3.00;;;;;;;23.58;62.14;98416.42;226043;1278;24303;-78
2023/08/04 16:50:28;;;;;;;13.70;4.00;;;;;;;23.47;62.21;98420.18;226000;1276;23355;-77
2023/08/04 16:55:33;;;;;;;4.00;2.70;;;;;;;23.39;62.59;98414.48;226063;1279;22566;-78
2023/08/04 17:00:44;;;;;;;3.40;2.60;;;;;;;23.33;62.72;98406.20;225952;1279;22554;-78
2023/08/04 17:05:46;;;;;;;9.50;8.20;;;;;;;23.30;62.78;98403.17;226218;1276;22612;-78
2023/08/04 17:10:48;;;;;;;3.50;2.50;;;;;;;23.31;62.76;98404.38;226194;1273;23049;-77
2023/08/04 17:16:18;;;;;;;4.60;2.60;;;;;;;23.30;62.78;98407.02;226135;1279;22697;-78
2023/08/04 17:21:20;;;;;;;7.50;3.40;;;;;;;23.28;63.07;98412.41;225837;1279;22585;-77
2023/08/04 17:26:23;;;;;;;4.70;2.90;;;;;;;23.23;63.30;98407.13;226005;1276;22540;-76
2023/08/04 17:31:26;;;;;;;3.70;2.50;;;;;;;23.16;63.31;98408.75;226075;1273;22689;-77
2023/08/04 17:36:28;;;;;;;2.50;2.30;;;;;;;23.05;63.49;98415.33;226018;1266;22554;-77
2023/08/04 17:41:30;;;;;;;6.20;2.50;;;;;;;22.89;63.59;98418.81;226055;1276;22550;-76
2023/08/04 17:46:33;;;;;;;3.80;2.50;;;;;;;22.73;63.82;98417.77;226003;1258;22547;-77
2023/08/04 17:51:35;;;;;;;3.90;2.30;;;;;;;22.62;64.26;98426.10;226026;1276;22559;-77
2023/08/04 17:56:40;;;;;;;6.30;2.40;;;;;;;22.54;64.48;98418.11;226088;1279;22596;-77
2023/08/04 18:01:45;;;;;;;6.60;4.20;;;;;;;22.45;64.71;98422.11;226102;1272;22546;-77
2023/08/04 18:06:48;;;;;;;5.60;4.10;;;;;;;22.38;65.07;98419.23;226144;1276;22544;-77
2023/08/04 18:11:50;;;;;;;5.70;3.70;;;;;;;22.32;65.60;98425.64;226119;1277;22547;-78
2023/08/04 18:16:55;;;;;;;6.10;3.00;;;;;;;22.25;66.10;98435.89;226083;1276;22546;-77
2023/08/04 18:22:05;;;;;;;6.00;2.90;;;;;;;22.17;66.40;98444.39;226068;1279;22544;-76
2023/08/04 18:27:09;;;;;;;5.30;3.20;;;;;;;22.07;66.84;98447.38;225934;1276;22559;-77
2023/08/04 18:32:12;;;;;;;7.60;3.20;;;;;;;21.98;67.04;98450.70;226062;1276;22537;-77
2023/08/04 18:37:14;;;;;;;6.20;3.40;;;;;;;21.91;67.51;98439.83;225857;1279;22524;-77
2023/08/04 18:42:17;;;;;;;6.20;3.10;;;;;;;21.84;67.76;98422.17;226111;1273;24244;-77
2023/08/04 18:47:19;;;;;;;11.40;5.10;;;;;;;21.78;67.83;98414.81;226043;1276;24200;-77
2023/08/04 18:52:21;;;;;;;6.50;4.00;;;;;;;21.71;68.15;98405.17;225988;1278;22545;-77
2023/08/04 18:57:23;;;;;;;10.60;5.70;;;;;;;21.65;68.46;98405.62;225927;1257;22540;-77
2023/08/04 19:02:26;;;;;;;7.60;5.30;;;;;;;21.57;69.00;98415.66;226050;1279;22547;-76
2023/08/04 19:07:28;;;;;;;7.90;5.70;;;;;;;21.48;69.11;98420.34;226044;1276;22639;-77
2023/08/04 19:12:32;;;;;;;9.10;5.30;;;;;;;21.38;69.41;98433.49;225935;1277;22523;-77
2023/08/04 19:17:35;;;;;;;8.60;5.20;;;;;;;21.29;69.59;98434.48;226015;1275;22605;-76
2023/08/04 19:22:37;;;;;;;7.10;4.70;;;;;;;21.22;69.98;98425.89;225788;1279;22607;-76
2023/08/04 19:27:39;;;;;;;7.10;5.00;;;;;;;21.16;70.20;98418.80;225967;1279;22580;-76
2023/08/04 19:32:41;;;;;;;10.50;5.00;;;;;;;21.11;70.22;98418.40;225874;1278;22467;-77
2023/08/04 19:37:44;;;;;;;5.70;4.70;;;;;;;21.08;70.47;98425.80;225944;1273;22572;-77
2023/08/04 19:42:46;;;;;;;7.70;4.50;;;;;;;21.07;70.74;98441.83;226030;1279;22539;-75
2023/08/04 19:47:51;;;;;;;6.30;4.50;;;;;;;21.03;70.90;98453.10;225984;1277;22573;-77
2023/08/04 19:52:53;;;;;;;7.90;4.30;;;;;;;21.00;70.90;98452.98;225975;1277;22557;-76
2023/08/04 19:57:55;;;;;;;6.50;4.00;;;;;;;20.99;71.09;98454.91;226031;1272;25249;-77
2023/08/04 20:02:59;;;;;;;7.10;4.30;;;;;;;20.97;71.25;98443.55;225990;1276;22587;-76
2023/08/04 20:08:04;;;;;;;7.70;4.90;;;;;;;20.95;71.40;98437.38;226050;1279;22561;-76
2023/08/04 20:13:06;;;;;;;6.40;4.40;;;;;;;20.94;71.45;98432.20;226045;1276;22534;-77
2023/08/04 20:18:10;;;;;;;7.20;4.60;;;;;;;20.90;71.70;98427.59;225942;1279;22616;-75
2023/08/04 20:23:12;;;;;;;8.00;4.40;;;;;;;20.84;71.85;98440.66;225992;1279;22551;-76
2023/08/04 20:28:14;;;;;;;5.90;4.70;;;;;;;20.78;72.07;98447.03;225934;1273;22529;-76
2023/08/04 20:33:19;;;;;;;7.20;4.30;;;;;;;20.75;72.21;98454.23;225808;1279;22651;-76
2023/08/04 20:38:32;;;;;;;6.10;4.30;;;;;;;20.74;72.32;98462.70;225903;1276;22544;-78
2023/08/04 20:43:39;;;;;;;7.80;4.40;;;;;;;20.73;72.41;98462.91;226006;1279;22543;-76
2023/08/04 20:48:43;;;;;;;5.20;4.10;;;;;;;20.73;72.36;98451.96;225968;1273;22540;-76
2023/08/04 20:53:50;;;;;;;7.10;4.80;;;;;;;20.73;72.46;98446.64;225927;1278;22586;-76
2023/08/04 20:58:53;;;;;;;9.00;4.70;;;;;;;20.71;72.54;98440.02;225970;1278;22547;-78
2023/08/04 21:03:55;;;;;;;10.60;5.10;;;;;;;20.70;72.72;98431.16;225945;1273;22541;-77
2023/08/04 21:09:01;;;;;;;8.70;5.90;;;;;;;20.67;72.79;98430.92;225916;1279;22533;-77
2023/08/04 21:14:04;;;;;;;7.80;5.70;;;;;;;20.65;72.96;98437.95;225920;1276;22539;-77
2023/08/04 21:19:06;;;;;;;10.70;6.70;;;;;;;20.64;73.14;98439.02;226004;1279;24310;-76
2023/08/04 21:24:08;;;;;;;11.60;7.40;;;;;;;20.62;73.24;98436.76;225994;1276;22545;-77
2023/08/04 21:29:10;;;;;;;10.20;7.10;;;;;;;20.61;73.34;98442.56;225996;1276;22572;-76
2023/08/04 21:34:13;;;;;;;11.10;7.30;;;;;;;20.59;73.36;98448.24;225916;1279;24243;-75
2023/08/04 21:39:16;;;;;;;11.70;7.70;;;;;;;20.57;73.58;98444.85;225963;1276;22544;-77
2023/08/04 21:44:18;;;;;;;11.50;7.20;;;;;;;20.53;73.70;98440.19;225952;1275;22550;-76
2023/08/04 21:49:21;;;;;;;12.40;8.20;;;;;;;20.49;73.77;98442.75;225954;1279;22546;-76
2023/08/04 21:54:23;;;;;;;9.80;7.80;;;;;;;20.45;74.04;98444.77;225992;1277;22560;-76
2023/08/04 21:59:25;;;;;;;10.90;7.40;;;;;;;20.41;74.24;98436.65;225861;1279;22564;-77
2023/08/04 22:04:37;;;;;;;11.00;7.80;;;;;;;20.38;74.48;98436.67;225973;1278;22637;-76
2023/08/04 22:09:42;;;;;;;10.80;7.20;;;;;;;20.35;74.52;98430.69;226052;1272;22548;-76
2023/08/04 22:14:45;;;;;;;11.10;8.00;;;;;;;20.32;74.55;98417.58;226039;1275;23097;-76
2023/08/04 22:19:47;;;;;;;11.80;7.80;;;;;;;20.28;74.73;98415.35;225939;1276;22539;-77
2023/08/04 22:24:49;;;;;;;13.80;8.10;;;;;;;20.25;75.00;98416.45;225994;1274;22538;-77
2023/08/04 22:29:51;;;;;;;13.30;8.70;;;;;;;20.20;75.12;98410.52;225993;1275;22649;-74
2023/08/04 22:34:53;;;;;;;11.50;7.30;;;;;;;20.14;75.22;98410.86;225870;1278;22551;-76
2023/08/04 22:39:56;;;;;;;12.40;7.90;;;;;;;20.09;75.45;98414.67;226016;1272;22550;-77
2023/08/04 22:45:08;;;;;;;11.20;7.10;;;;;;;20.07;75.72;98411.56;226007;1275;22608;-76
2023/08/04 22:50:11;;;;;;;9.40;6.70;;;;;;;20.07;75.69;98420.73;225921;1276;148579;-76
2023/08/04 22:55:13;;;;;;;9.90;6.50;;;;;;;20.05;75.67;98410.25;225994;1278;22537;-76
2023/08/04 23:00:17;;;;;;;11.30;7.00;;;;;;;20.03;75.79;98403.54;226037;1279;22609;-76
2023/08/04 23:05:20;;;;;;;11.50;7.10;;;;;;;20.03;75.68;98394.33;226095;1279;22541;-76
2023/08/04 23:10:23;;;;;;;9.90;5.90;;;;;;;20.00;75.56;98387.81;226091;1275;23466;-75
2023/08/04 23:15:25;;;;;;;10.30;6.30;;;;;;;19.96;75.50;98390.89;226033;1279;22548;-76
2023/08/04 23:20:27;;;;;;;11.20;5.90;;;;;;;19.92;75.65;98387.58;226034;1276;22536;-76
2023/08/04 23:25:30;;;;;;;8.60;5.80;;;;;;;19.89;75.72;98378.92;226060;1277;22590;-76
2023/08/04 23:30:52;;;;;;;11.00;6.50;;;;;;;19.87;75.82;98362.04;226059;1279;22914;-76
2023/08/04 23:35:57;;;;;;;11.00;6.70;;;;;;;19.86;75.87;98360.00;226043;1277;22569;-76
2023/08/04 23:41:00;;;;;;;11.40;7.00;;;;;;;19.87;75.86;98363.71;226045;1276;22555;-78
2023/08/04 23:46:02;;;;;;;9.90;6.70;;;;;;;19.89;75.73;98374.36;225999;1276;22560;-75
2023/08/04 23:51:08;;;;;;;9.70;5.50;;;;;;;19.88;75.64;98380.71;225933;1278;23089;-76
2023/08/04 23:56:11;;;;;;;9.60;5.30;;;;;;;19.89;75.69;98381.55;225930;1275;22547;-76
